sensor_id;sensor_type;location;lat;lon;timestamp;pressure;altitude;pressure_sealevel;temperature;humidity
75460;BME280;64039;53.060;9.342;2022-10-31T00:00:05;101570.75;;;12.92;100.00
75460;BME280;64039;53.060;9.342;2022-10-31T00:02:31;101578.41;;;12.86;100.00
75460;BME280;64039;53.060;9.342;2022-10-31T00:04:57;101573.84;;;12.76;100.00
75460;BME280;64039;53.060;9.342;2022-10-31T00:07:22;101580.75;;;12.73;100.00
75460;BME280;64039;53.060;9.342;2022-10-31T00:09:47;101569.47;;;12.76;100.00
75460;BME280;64039;53.060;9.342;2022-10-31T00:12:13;101579.81;;;12.71;100.00
75460;BME280;64039;53.060;9.342;2022-10-31T00:14:38;101574.63;;;12.73;100.00
75460;BME280;64039;53.060;9.342;2022-10-31T00:17:04;101579.91;;;12.74;100.00
75460;BME280;64039;53.060;9.342;2022-10-31T00:19:29;101585.38;;;12.85;100.00
75460;BME280;64039;53.060;9.342;2022-10-31T00:21:54;101586.97;;;12.80;100.00
75460;BME280;64039;53.060;9.342;2022-10-31T00:24:20;101592.31;;;12.85;100.00
75460;BME280;64039;53.060;9.342;2022-10-31T00:26:45;101589.69;;;12.83;100.00
75460;BME280;64039;53.060;9.342;2022-10-31T00:29:11;101603.69;;;12.87;100.00
75460;BME280;64039;53.060;9.342;2022-10-31T00:31:37;101621.97;;;12.85;100.00
75460;BME280;64039;53.060;9.342;2022-10-31T00:34:03;101615.63;;;12.76;100.00
75460;BME280;64039;53.060;9.342;2022-10-31T00:36:28;101621.94;;;12.84;100.00
75460;BME280;64039;53.060;9.342;2022-10-31T00:38:54;101626.44;;;12.91;100.00
75460;BME280;64039;53.060;9.342;2022-10-31T00:41:19;101623.06;;;12.95;100.00
75460;BME280;64039;53.060;9.342;2022-10-31T00:43:45;101621.50;;;13.03;100.00
75460;BME280;64039;53.060;9.342;2022-10-31T00:46:12;101625.19;;;13.12;100.00
75460;BME280;64039;53.060;9.342;2022-10-31T00:48:37;101633.97;;;13.15;100.00
75460;BME280;64039;53.060;9.342;2022-10-31T00:51:03;101640.84;;;13.10;100.00
75460;BME280;64039;53.060;9.342;2022-10-31T00:53:28;101641.66;;;13.08;100.00
75460;BME280;64039;53.060;9.342;2022-10-31T00:55:54;101650.19;;;13.00;100.00
75460;BME280;64039;53.060;9.342;2022-10-31T00:58:20;101643.22;;;12.99;100.00
75460;BME280;64039;53.060;9.342;2022-10-31T01:00:49;101639.75;;;13.00;100.00
75460;BME280;64039;53.060;9.342;2022-10-31T01:03:25;101639.69;;;12.99;100.00
75460;BME280;64039;53.060;9.342;2022-10-31T01:06:17;101650.94;;;12.95;100.00
75460;BME280;64039;53.060;9.342;2022-10-31T01:08:43;101655.97;;;12.88;100.00
75460;BME280;64039;53.060;9.342;2022-10-31T01:11:17;101649.75;;;12.82;100.00
75460;BME280;64039;53.060;9.342;2022-10-31T01:13:44;101660.22;;;12.83;100.00
75460;BME280;64039;53.060;9.342;2022-10-31T01:16:16;101663.72;;;12.84;100.00
75460;BME280;64039;53.060;9.342;2022-10-31T01:18:41;101668.84;;;12.79;100.00
75460;BME280;64039;53.060;9.342;2022-10-31T01:21:10;101676.81;;;12.85;100.00
75460;BME280;64039;53.060;9.342;2022-10-31T01:23:36;101679.16;;;12.74;100.00
75460;BME280;64039;53.060;9.342;2022-10-31T01:26:09;101664.50;;;12.81;100.00
75460;BME280;64039;53.060;9.342;2022-10-31T01:28:36;101668.59;;;12.70;100.00
75460;BME280;64039;53.060;9.342;2022-10-31T01:31:04;101666.28;;;12.82;100.00
75460;BME280;64039;53.060;9.342;2022-10-31T01:33:30;101666.94;;;12.73;100.00
75460;BME280;64039;53.060;9.342;2022-10-31T01:35:55;101667.44;;;12.60;100.00
75460;BME280;64039;53.060;9.342;2022-10-31T01:38:21;101670.81;;;12.54;100.00
75460;BME280;64039;53.060;9.342;2022-10-31T01:40:47;101676.63;;;12.44;100.00
75460;BME280;64039;53.060;9.342;2022-10-31T01:43:13;101679.22;;;12.44;100.00
75460;BME280;64039;53.060;9.342;2022-10-31T01:45:40;101683.47;;;12.40;100.00
75460;BME280;64039;53.060;9.342;2022-10-31T01:48:13;101683.41;;;12.39;100.00
75460;BME280;64039;53.060;9.342;2022-10-31T01:50:41;101684.31;;;12.39;100.00
75460;BME280;64039;53.060;9.342;2022-10-31T01:53:09;101687.78;;;12.38;100.00
75460;BME280;64039;53.060;9.342;2022-10-31T01:55:39;101690.41;;;12.40;100.00
75460;BME280;64039;53.060;9.342;2022-10-31T01:58:15;101691.84;;;12.29;100.00
75460;BME280;64039;53.060;9.342;2022-10-31T02:00:43;101690.97;;;12.28;100.00
75460;BME280;64039;53.060;9.342;2022-10-31T02:03:10;101697.81;;;12.24;100.00
75460;BME280;64039;53.060;9.342;2022-10-31T02:05:36;101682.88;;;12.19;100.00
75460;BME280;64039;53.060;9.342;2022-10-31T02:08:10;101683.06;;;12.25;100.00
75460;BME280;64039;53.060;9.342;2022-10-31T02:10:39;101680.25;;;12.19;100.00
75460;BME280;64039;53.060;9.342;2022-10-31T02:13:07;101686.94;;;12.09;100.00
75460;BME280;64039;53.060;9.342;2022-10-31T02:15:35;101691.22;;;12.07;100.00
75460;BME280;64039;53.060;9.342;2022-10-31T02:18:02;101686.84;;;12.06;100.00
75460;BME280;64039;53.060;9.342;2022-10-31T02:20:33;101686.00;;;12.07;100.00
75460;BME280;64039;53.060;9.342;2022-10-31T02:37:30;101695.53;;;11.77;100.00
75460;BME280;64039;53.060;9.342;2022-10-31T02:40:05;101697.22;;;11.75;100.00
75460;BME280;64039;53.060;9.342;2022-10-31T02:42:48;101703.22;;;11.73;100.00
75460;BME280;64039;53.060;9.342;2022-10-31T02:45:31;101700.69;;;11.74;100.00
75460;BME280;64039;53.060;9.342;2022-10-31T02:48:04;101702.44;;;11.75;100.00
75460;BME280;64039;53.060;9.342;2022-10-31T02:50:34;101696.09;;;11.67;100.00
75460;BME280;64039;53.060;9.342;2022-10-31T02:53:02;101705.00;;;11.74;100.00
75460;BME280;64039;53.060;9.342;2022-10-31T02:58:00;101700.69;;;11.74;100.00
75460;BME280;64039;53.060;9.342;2022-10-31T03:00:31;101702.78;;;11.86;100.00
75460;BME280;64039;53.060;9.342;2022-10-31T03:08:30;101704.84;;;11.69;100.00
75460;BME280;64039;53.060;9.342;2022-10-31T03:11:01;101715.53;;;11.77;100.00
75460;BME280;64039;53.060;9.342;2022-10-31T03:16:45;101703.44;;;11.79;100.00
75460;BME280;64039;53.060;9.342;2022-10-31T03:19:06;101711.88;;;11.72;100.00
75460;BME280;64039;53.060;9.342;2022-10-31T03:21:45;101724.88;;;11.70;100.00
75460;BME280;64039;53.060;9.342;2022-10-31T03:24:12;101715.16;;;11.64;100.00
75460;BME280;64039;53.060;9.342;2022-10-31T03:26:47;101721.63;;;11.48;100.00
75460;BME280;64039;53.060;9.342;2022-10-31T03:29:16;101725.53;;;11.63;100.00
75460;BME280;64039;53.060;9.342;2022-10-31T03:31:57;101731.47;;;11.59;100.00
75460;BME280;64039;53.060;9.342;2022-10-31T03:34:23;101736.63;;;11.56;100.00
75460;BME280;64039;53.060;9.342;2022-10-31T03:36:51;101740.19;;;11.59;100.00
75460;BME280;64039;53.060;9.342;2022-10-31T03:39:20;101734.09;;;11.59;100.00
75460;BME280;64039;53.060;9.342;2022-10-31T03:41:54;101730.75;;;11.63;100.00
75460;BME280;64039;53.060;9.342;2022-10-31T03:44:22;101732.66;;;11.69;100.00
75460;BME280;64039;53.060;9.342;2022-10-31T03:46:49;101729.97;;;11.66;100.00
75460;BME280;64039;53.060;9.342;2022-10-31T03:49:15;101742.13;;;11.65;100.00
75460;BME280;64039;53.060;9.342;2022-10-31T03:51:46;101738.75;;;11.69;100.00
75460;BME280;64039;53.060;9.342;2022-10-31T03:56:50;101747.50;;;11.70;100.00
75460;BME280;64039;53.060;9.342;2022-10-31T03:59:31;101758.31;;;11.55;100.00
75460;BME280;64039;53.060;9.342;2022-10-31T04:02:02;101751.13;;;11.47;100.00
75460;BME280;64039;53.060;9.342;2022-10-31T04:04:30;101753.72;;;11.47;100.00
75460;BME280;64039;53.060;9.342;2022-10-31T04:06:58;101751.69;;;11.39;100.00
75460;BME280;64039;53.060;9.342;2022-10-31T04:09:26;101756.56;;;11.28;100.00
75460;BME280;64039;53.060;9.342;2022-10-31T04:11:54;101757.03;;;11.16;100.00
75460;BME280;64039;53.060;9.342;2022-10-31T04:14:26;101759.63;;;11.16;100.00
75460;BME280;64039;53.060;9.342;2022-10-31T04:16:52;101752.13;;;11.25;100.00
75460;BME280;64039;53.060;9.342;2022-10-31T04:19:19;101757.69;;;11.10;100.00
75460;BME280;64039;53.060;9.342;2022-10-31T04:21:44;101761.53;;;10.94;100.00
75460;BME280;64039;53.060;9.342;2022-10-31T04:24:10;101765.03;;;10.96;100.00
75460;BME280;64039;53.060;9.342;2022-10-31T04:26:36;101770.94;;;10.91;100.00
75460;BME280;64039;53.060;9.342;2022-10-31T04:29:01;101774.25;;;10.87;100.00
75460;BME280;64039;53.060;9.342;2022-10-31T04:31:27;101776.88;;;10.87;100.00
75460;BME280;64039;53.060;9.342;2022-10-31T04:33:52;101779.59;;;10.90;100.00
75460;BME280;64039;53.060;9.342;2022-10-31T04:36:17;101772.47;;;10.85;100.00
75460;BME280;64039;53.060;9.342;2022-10-31T04:38:43;101778.44;;;10.81;100.00
75460;BME280;64039;53.060;9.342;2022-10-31T04:41:08;101784.84;;;10.91;100.00
75460;BME280;64039;53.060;9.342;2022-10-31T04:43:34;101784.50;;;10.82;100.00
75460;BME280;64039;53.060;9.342;2022-10-31T04:45:59;101778.44;;;10.81;100.00
75460;BME280;64039;53.060;9.342;2022-10-31T04:48:25;101779.59;;;10.90;100.00
75460;BME280;64039;53.060;9.342;2022-10-31T04:50:50;101771.69;;;10.88;100.00
75460;BME280;64039;53.060;9.342;2022-10-31T04:53:16;101763.56;;;10.79;100.00
75460;BME280;64039;53.060;9.342;2022-10-31T04:55:41;101770.13;;;10.67;100.00
75460;BME280;64039;53.060;9.342;2022-10-31T04:58:07;101765.63;;;10.63;100.00
75460;BME280;64039;53.060;9.342;2022-10-31T05:00:32;101761.03;;;10.56;100.00
75460;BME280;64039;53.060;9.342;2022-10-31T05:02:58;101762.41;;;10.46;100.00
75460;BME280;64039;53.060;9.342;2022-10-31T05:05:30;101764.84;;;10.42;100.00
75460;BME280;64039;53.060;9.342;2022-10-31T05:07:56;101769.41;;;10.47;100.00
75460;BME280;64039;53.060;9.342;2022-10-31T05:10:25;101771.03;;;10.45;100.00
75460;BME280;64039;53.060;9.342;2022-10-31T05:12:54;101766.78;;;10.47;100.00
75460;BME280;64039;53.060;9.342;2022-10-31T05:15:22;101776.44;;;10.50;100.00
75460;BME280;64039;53.060;9.342;2022-10-31T05:17:48;101762.59;;;10.51;100.00
75460;BME280;64039;53.060;9.342;2022-10-31T05:20:15;101759.25;;;10.55;100.00
75460;BME280;64039;53.060;9.342;2022-10-31T05:22:46;101760.16;;;10.56;100.00
75460;BME280;64039;53.060;9.342;2022-10-31T05:25:12;101762.63;;;10.52;100.00
75460;BME280;64039;53.060;9.342;2022-10-31T05:27:39;101760.25;;;10.59;100.00
75460;BME280;64039;53.060;9.342;2022-10-31T05:30:05;101761.03;;;10.56;100.00
75460;BME280;64039;53.060;9.342;2022-10-31T05:32:37;101757.53;;;10.56;100.00
75460;BME280;64039;53.060;9.342;2022-10-31T05:35:02;101764.22;;;10.49;100.00
75460;BME280;64039;53.060;9.342;2022-10-31T05:37:28;101757.25;;;10.48;100.00
75460;BME280;64039;53.060;9.342;2022-10-31T05:39:53;101749.41;;;10.46;100.00
75460;BME280;64039;53.060;9.342;2022-10-31T05:42:19;101751.00;;;10.43;100.00
75460;BME280;64039;53.060;9.342;2022-10-31T05:44:44;101756.09;;;10.40;100.00
75460;BME280;64039;53.060;9.342;2022-10-31T05:47:09;101758.38;;;10.32;100.00
75460;BME280;64039;53.060;9.342;2022-10-31T05:49:35;101761.84;;;10.32;100.00
75460;BME280;64039;53.060;9.342;2022-10-31T05:52:00;101770.50;;;10.31;100.00
75460;BME280;64039;53.060;9.342;2022-10-31T05:54:26;101772.22;;;10.31;100.00
75460;BME280;64039;53.060;9.342;2022-10-31T05:56:51;101778.06;;;10.25;100.00
75460;BME280;64039;53.060;9.342;2022-10-31T05:59:16;101774.47;;;10.21;100.00
75460;BME280;64039;53.060;9.342;2022-10-31T06:01:42;101778.69;;;10.18;100.00
75460;BME280;64039;53.060;9.342;2022-10-31T06:04:07;101778.44;;;10.34;100.00
75460;BME280;64039;53.060;9.342;2022-10-31T06:06:32;101773.47;;;10.41;100.00
75460;BME280;64039;53.060;9.342;2022-10-31T06:08:58;101771.16;;;10.48;100.00
75460;BME280;64039;53.060;9.342;2022-10-31T06:11:23;101772.22;;;10.53;100.00
75460;BME280;64039;53.060;9.342;2022-10-31T06:13:49;101782.03;;;10.61;100.00
75460;BME280;64039;53.060;9.342;2022-10-31T06:16:14;101775.19;;;10.64;100.00
75460;BME280;64039;53.060;9.342;2022-10-31T06:18:39;101776.00;;;10.62;100.00
75460;BME280;64039;53.060;9.342;2022-10-31T06:21:05;101772.88;;;10.48;100.00
75460;BME280;64039;53.060;9.342;2022-10-31T06:23:30;101777.59;;;10.58;100.00
75460;BME280;64039;53.060;9.342;2022-10-31T06:25:56;101774.81;;;10.53;100.00
75460;BME280;64039;53.060;9.342;2022-10-31T06:28:21;101783.41;;;10.51;100.00
75460;BME280;64039;53.060;9.342;2022-10-31T06:30:46;101780.91;;;10.54;100.00
75460;BME280;64039;53.060;9.342;2022-10-31T06:33:12;101790.31;;;10.50;100.00
75460;BME280;64039;53.060;9.342;2022-10-31T06:35:37;101791.22;;;10.51;100.00
75460;BME280;64039;53.060;9.342;2022-10-31T06:38:02;101786.22;;;10.57;100.00
75460;BME280;64039;53.060;9.342;2022-10-31T06:40:28;101793.56;;;10.67;100.00
75460;BME280;64039;53.060;9.342;2022-10-31T06:43:00;101786.63;;;10.68;100.00
75460;BME280;64039;53.060;9.342;2022-10-31T06:45:26;101800.19;;;10.83;100.00
75460;BME280;64039;53.060;9.342;2022-10-31T06:47:53;101802.78;;;10.83;100.00
75460;BME280;64039;53.060;9.342;2022-10-31T06:50:19;101804.72;;;10.89;100.00
75460;BME280;64039;53.060;9.342;2022-10-31T06:52:50;101801.50;;;10.96;100.00
75460;BME280;64039;53.060;9.342;2022-10-31T06:55:16;101807.72;;;11.00;100.00
75460;BME280;64039;53.060;9.342;2022-10-31T06:57:41;101809.56;;;11.03;100.00
75460;BME280;64039;53.060;9.342;2022-10-31T07:00:07;101801.91;;;11.07;100.00
75460;BME280;64039;53.060;9.342;2022-10-31T07:02:33;101797.75;;;11.12;100.00
75460;BME280;64039;53.060;9.342;2022-10-31T07:04:58;101798.84;;;11.19;100.00
75460;BME280;64039;53.060;9.342;2022-10-31T07:07:24;101803.31;;;11.23;100.00
75460;BME280;64039;53.060;9.342;2022-10-31T07:09:49;101807.16;;;11.09;100.00
75460;BME280;64039;53.060;9.342;2022-10-31T07:12:15;101816.56;;;11.04;100.00
75460;BME280;64039;53.060;9.342;2022-10-31T07:14:41;101816.44;;;11.00;100.00
75460;BME280;64039;53.060;9.342;2022-10-31T07:17:07;101815.69;;;11.05;100.00
75460;BME280;64039;53.060;9.342;2022-10-31T07:19:32;101821.81;;;11.05;100.00
75460;BME280;64039;53.060;9.342;2022-10-31T07:21:58;101828.25;;;11.16;100.00
75460;BME280;64039;53.060;9.342;2022-10-31T07:24:23;101831.88;;;11.20;100.00
75460;BME280;64039;53.060;9.342;2022-10-31T07:26:48;101834.69;;;11.26;100.00
75460;BME280;64039;53.060;9.342;2022-10-31T07:29:14;101833.25;;;11.35;100.00
75460;BME280;64039;53.060;9.342;2022-10-31T07:31:40;101836.09;;;11.42;100.00
75460;BME280;64039;53.060;9.342;2022-10-31T07:34:05;101836.97;;;11.41;100.00
75460;BME280;64039;53.060;9.342;2022-10-31T07:36:30;101838.63;;;11.39;100.00
75460;BME280;64039;53.060;9.342;2022-10-31T07:38:56;101835.84;;;11.35;100.00
75460;BME280;64039;53.060;9.342;2022-10-31T07:41:23;101837.00;;;11.43;100.00
75460;BME280;64039;53.060;9.342;2022-10-31T07:43:50;101837.16;;;11.47;100.00
75460;BME280;64039;53.060;9.342;2022-10-31T07:46:15;101844.38;;;11.56;100.00
75460;BME280;64039;53.060;9.342;2022-10-31T07:48:41;101835.88;;;11.62;100.00
75460;BME280;64039;53.060;9.342;2022-10-31T07:51:06;101837.81;;;11.68;100.00
75460;BME280;64039;53.060;9.342;2022-10-31T07:53:32;101842.25;;;11.70;100.00
75460;BME280;64039;53.060;9.342;2022-10-31T07:55:57;101844.22;;;11.77;100.00
75460;BME280;64039;53.060;9.342;2022-10-31T07:58:23;101843.44;;;11.80;100.00
75460;BME280;64039;53.060;9.342;2022-10-31T08:00:48;101842.56;;;11.79;100.00
75460;BME280;64039;53.060;9.342;2022-10-31T08:03:16;101841.13;;;11.89;100.00
75460;BME280;64039;53.060;9.342;2022-10-31T08:05:42;101844.78;;;11.94;100.00
75460;BME280;64039;53.060;9.342;2022-10-31T08:08:09;101840.81;;;12.06;100.00
75460;BME280;64039;53.060;9.342;2022-10-31T08:10:36;101839.25;;;12.11;100.00
75460;BME280;64039;53.060;9.342;2022-10-31T08:13:05;101840.16;;;12.13;100.00
75460;BME280;64039;53.060;9.342;2022-10-31T08:15:32;101845.59;;;12.19;100.00
75460;BME280;64039;53.060;9.342;2022-10-31T08:17:59;101854.41;;;12.23;100.00
75460;BME280;64039;53.060;9.342;2022-10-31T08:20:25;101855.34;;;12.25;100.00
75460;BME280;64039;53.060;9.342;2022-10-31T08:22:57;101855.47;;;12.30;100.00
75460;BME280;64039;53.060;9.342;2022-10-31T08:25:23;101855.28;;;12.23;100.00
75460;BME280;64039;53.060;9.342;2022-10-31T08:27:53;101844.94;;;12.26;100.00
75460;BME280;64039;53.060;9.342;2022-10-31T08:30:20;101840.28;;;12.45;100.00
75460;BME280;64039;53.060;9.342;2022-10-31T08:32:46;101836.94;;;12.51;100.00
75460;BME280;64039;53.060;9.342;2022-10-31T08:35:12;101836.44;;;12.63;100.00
75460;BME280;64039;53.060;9.342;2022-10-31T08:37:37;101845.25;;;12.66;100.00
75460;BME280;64039;53.060;9.342;2022-10-31T08:40:04;101838.69;;;12.81;100.00
75460;BME280;64039;53.060;9.342;2022-10-31T08:42:29;101836.28;;;12.88;100.00
75460;BME280;64039;53.060;9.342;2022-10-31T08:44:55;101844.34;;;12.96;100.00
75460;BME280;64039;53.060;9.342;2022-10-31T08:47:20;101836.34;;;12.90;100.00
75460;BME280;64039;53.060;9.342;2022-10-31T08:49:46;101828.75;;;12.99;100.00
75460;BME280;64039;53.060;9.342;2022-10-31T08:52:11;101826.84;;;12.94;100.00
75460;BME280;64039;53.060;9.342;2022-10-31T08:54:36;101826.06;;;12.98;100.00
75460;BME280;64039;53.060;9.342;2022-10-31T08:57:02;101838.31;;;12.99;100.00
75460;BME280;64039;53.060;9.342;2022-10-31T08:59:27;101827.66;;;12.91;100.00
75460;BME280;64039;53.060;9.342;2022-10-31T09:01:53;101819.97;;;12.97;100.00
75460;BME280;64039;53.060;9.342;2022-10-31T09:04:18;101821.41;;;12.86;100.00
75460;BME280;64039;53.060;9.342;2022-10-31T09:06:43;101823.34;;;12.93;100.00
75460;BME280;64039;53.060;9.342;2022-10-31T09:09:09;101827.59;;;12.89;100.00
75460;BME280;64039;53.060;9.342;2022-10-31T09:11:34;101814.63;;;12.93;100.00
75460;BME280;64039;53.060;9.342;2022-10-31T09:13:59;101819.88;;;12.94;100.00
75460;BME280;64039;53.060;9.342;2022-10-31T09:16:25;101825.88;;;12.90;100.00
75460;BME280;64039;53.060;9.342;2022-10-31T09:18:50;101824.09;;;12.89;100.00
75460;BME280;64039;53.060;9.342;2022-10-31T09:21:16;101819.00;;;12.94;100.00
75460;BME280;64039;53.060;9.342;2022-10-31T09:23:41;101820.81;;;12.96;100.00
75460;BME280;64039;53.060;9.342;2022-10-31T09:26:13;101821.16;;;13.09;100.00
75460;BME280;64039;53.060;9.342;2022-10-31T09:28:39;101826.56;;;13.15;100.00
75460;BME280;64039;53.060;9.342;2022-10-31T09:31:04;101830.81;;;13.11;100.00
75460;BME280;64039;53.060;9.342;2022-10-31T09:33:29;101830.41;;;13.29;100.00
75460;BME280;64039;53.060;9.342;2022-10-31T09:35:58;101833.16;;;13.34;100.00
75460;BME280;64039;53.060;9.342;2022-10-31T09:38:23;101828.72;;;13.31;100.00
75460;BME280;64039;53.060;9.342;2022-10-31T09:41:12;101832.28;;;13.33;100.00
75460;BME280;64039;53.060;9.342;2022-10-31T09:47:04;101830.09;;;13.50;100.00
75460;BME280;64039;53.060;9.342;2022-10-31T09:52:30;101815.47;;;13.57;100.00
75460;BME280;64039;53.060;9.342;2022-10-31T09:55:17;101813.09;;;13.68;100.00
75460;BME280;64039;53.060;9.342;2022-10-31T09:57:45;101808.97;;;13.78;100.00
75460;BME280;64039;53.060;9.342;2022-10-31T10:00:18;101808.22;;;13.82;100.00
75460;BME280;64039;53.060;9.342;2022-10-31T10:03:05;101793.25;;;13.76;100.00
75460;BME280;64039;53.060;9.342;2022-10-31T10:05:37;101796.16;;;13.89;100.00
75460;BME280;64039;53.060;9.342;2022-10-31T10:08:13;101802.25;;;13.88;100.00
75460;BME280;64039;53.060;9.342;2022-10-31T10:10:58;101798.81;;;13.90;100.00
75460;BME280;64039;53.060;9.342;2022-10-31T10:22:03;101821.53;;;13.93;100.00
75460;BME280;64039;53.060;9.342;2022-10-31T10:27:41;101818.31;;;14.05;100.00
75460;BME280;64039;53.060;9.342;2022-10-31T10:30:23;101816.66;;;14.08;100.00
75460;BME280;64039;53.060;9.342;2022-10-31T10:33:14;101810.91;;;14.25;100.00
75460;BME280;64039;53.060;9.342;2022-10-31T10:35:50;101810.69;;;14.15;100.00
75460;BME280;64039;53.060;9.342;2022-10-31T10:39:00;101811.50;;;14.11;100.00
75460;BME280;64039;53.060;9.342;2022-10-31T10:41:21;101809.81;;;14.13;100.00
75460;BME280;64039;53.060;9.342;2022-10-31T10:43:49;101805.25;;;14.06;100.00
75460;BME280;64039;53.060;9.342;2022-10-31T10:46:30;101802.63;;;14.05;100.00
75460;BME280;64039;53.060;9.342;2022-10-31T10:52:30;101801.06;;;14.14;100.00
75460;BME280;64039;53.060;9.342;2022-10-31T10:57:58;101803.06;;;14.25;100.00
75460;BME280;64039;53.060;9.342;2022-10-31T11:00:34;101795.47;;;14.37;100.00
75460;BME280;64039;53.060;9.342;2022-10-31T11:03:00;101791.41;;;14.53;100.00
75460;BME280;64039;53.060;9.342;2022-10-31T11:05:51;101782.16;;;14.68;100.00
75460;BME280;64039;53.060;9.342;2022-10-31T11:08:30;101791.22;;;14.85;100.00
75460;BME280;64039;53.060;9.342;2022-10-31T11:13:55;101792.09;;;14.84;100.00
75460;BME280;64039;53.060;9.342;2022-10-31T11:16:38;101789.59;;;14.92;100.00
75460;BME280;64039;53.060;9.342;2022-10-31T11:19:25;101788.53;;;14.81;100.00
75460;BME280;64039;53.060;9.342;2022-10-31T11:22:05;101790.22;;;14.77;100.00
75460;BME280;64039;53.060;9.342;2022-10-31T11:24:37;101778.00;;;14.79;100.00
75460;BME280;64039;53.060;9.342;2022-10-31T11:27:30;101786.00;;;14.85;100.00
75460;BME280;64039;53.060;9.342;2022-10-31T11:30:04;101776.41;;;14.87;100.00
75460;BME280;64039;53.060;9.342;2022-10-31T11:32:30;101779.38;;;15.07;100.00
75460;BME280;64039;53.060;9.342;2022-10-31T11:35:00;101783.00;;;15.14;100.00
75460;BME280;64039;53.060;9.342;2022-10-31T11:37:32;101784.84;;;15.18;100.00
75460;BME280;64039;53.060;9.342;2022-10-31T11:40:02;101777.88;;;15.20;100.00
75460;BME280;64039;53.060;9.342;2022-10-31T11:42:35;101781.22;;;15.12;100.00
75460;BME280;64039;53.060;9.342;2022-10-31T11:45:13;101774.88;;;15.00;100.00
75460;BME280;64039;53.060;9.342;2022-10-31T11:47:42;101784.31;;;14.90;100.00
75460;BME280;64039;53.060;9.342;2022-10-31T11:50:18;101782.81;;;15.03;100.00
75460;BME280;64039;53.060;9.342;2022-10-31T11:52:45;101774.88;;;15.00;100.00
75460;BME280;64039;53.060;9.342;2022-10-31T11:57:48;101775.06;;;15.11;100.00
75460;BME280;64039;53.060;9.342;2022-10-31T12:02:49;101768.94;;;15.09;100.00
75460;BME280;64039;53.060;9.342;2022-10-31T12:07:45;101762.59;;;14.98;100.00
75460;BME280;64039;53.060;9.342;2022-10-31T12:10:11;101765.31;;;15.01;100.00
75460;BME280;64039;53.060;9.342;2022-10-31T12:12:45;101762.59;;;14.98;100.00
75460;BME280;64039;53.060;9.342;2022-10-31T12:15:33;101754.66;;;14.93;100.00
75460;BME280;64039;53.060;9.342;2022-10-31T12:18:36;101759.13;;;14.99;100.00
75460;BME280;64039;53.060;9.342;2022-10-31T12:36:57;101737.22;;;14.93;100.00
75460;BME280;64039;53.060;9.342;2022-10-31T12:50:29;101724.19;;;14.98;100.00
75460;BME280;64039;53.060;9.342;2022-10-31T13:01:09;101709.09;;;14.85;100.00
75460;BME280;64039;53.060;9.342;2022-10-31T13:03:51;101700.22;;;14.78;100.00
75460;BME280;64039;53.060;9.342;2022-10-31T13:06:29;101694.84;;;14.69;100.00
75460;BME280;64039;53.060;9.342;2022-10-31T13:09:06;101699.19;;;14.68;100.00
75460;BME280;64039;53.060;9.342;2022-10-31T13:11:40;101689.41;;;14.61;100.00
75460;BME280;64039;53.060;9.342;2022-10-31T13:16:48;101693.78;;;14.60;100.00
75460;BME280;64039;53.060;9.342;2022-10-31T13:19:41;101683.34;;;14.65;100.00
75460;BME280;64039;53.060;9.342;2022-10-31T13:27:21;101667.44;;;14.53;100.00
75460;BME280;64039;53.060;9.342;2022-10-31T13:30:12;101671.00;;;14.58;100.00
75460;BME280;64039;53.060;9.342;2022-10-31T13:32:54;101662.38;;;14.65;100.00
75460;BME280;64039;53.060;9.342;2022-10-31T13:35:31;101663.34;;;14.67;100.00
75460;BME280;64039;53.060;9.342;2022-10-31T13:40:42;101632.75;;;14.66;100.00
75460;BME280;64039;53.060;9.342;2022-10-31T13:43:33;101624.00;;;14.66;100.00
75460;BME280;64039;53.060;9.342;2022-10-31T13:46:40;101622.22;;;14.63;100.00
75460;BME280;64039;53.060;9.342;2022-10-31T13:52:05;101606.25;;;14.51;100.00
75460;BME280;64039;53.060;9.342;2022-10-31T13:54:33;101591.22;;;14.39;100.00
75460;BME280;64039;53.060;9.342;2022-10-31T13:56:59;101575.47;;;14.37;100.00
75460;BME280;64039;53.060;9.342;2022-10-31T13:59:29;101567.63;;;14.37;100.00
75460;BME280;64039;53.060;9.342;2022-10-31T14:01:59;101566.78;;;14.40;100.00
75460;BME280;64039;53.060;9.342;2022-10-31T14:04:38;101566.63;;;14.32;100.00
75460;BME280;64039;53.060;9.342;2022-10-31T14:07:12;101583.22;;;14.31;100.00
75460;BME280;64039;53.060;9.342;2022-10-31T14:09:54;101586.47;;;14.18;100.00
75460;BME280;64039;53.060;9.342;2022-10-31T14:12:30;101589.91;;;14.13;100.00
75460;BME280;64039;53.060;9.342;2022-10-31T14:15:13;101579.38;;;14.12;100.00
75460;BME280;64039;53.060;9.342;2022-10-31T14:17:52;101583.78;;;14.14;100.00
75460;BME280;64039;53.060;9.342;2022-10-31T14:20:24;101590.75;;;14.12;100.00
75460;BME280;64039;53.060;9.342;2022-10-31T14:22:51;101579.25;;;14.04;100.00
75460;BME280;64039;53.060;9.342;2022-10-31T14:25:38;101567.19;;;14.14;100.00
75460;BME280;64039;53.060;9.342;2022-10-31T14:28:22;101548.88;;;14.15;100.00
75460;BME280;64039;53.060;9.342;2022-10-31T14:30:56;101545.47;;;14.18;100.00
75460;BME280;64039;53.060;9.342;2022-10-31T14:33:24;101538.66;;;14.28;100.00
75460;BME280;64039;53.060;9.342;2022-10-31T14:36:03;101539.41;;;14.22;100.00
75460;BME280;64039;53.060;9.342;2022-10-31T14:38:39;101527.19;;;14.21;100.00
75460;BME280;64039;53.060;9.342;2022-10-31T14:44:38;101525.31;;;14.14;100.00
75460;BME280;64039;53.060;9.342;2022-10-31T14:47:26;101518.28;;;14.10;100.00